createdAt,value
2023-05-14T00:01:42.006Z,100930.50
2023-05-14T00:04:44.501Z,100944.19
2023-05-14T00:07:46.827Z,100922.91
2023-05-14T00:10:49.207Z,100969.19
2023-05-14T00:13:51.588Z,100960.75
2023-05-14T00:16:53.937Z,100956.47
2023-05-14T00:19:56.476Z,100951.16
2023-05-14T00:22:58.895Z,100951.72
2023-05-14T00:26:01.229Z,100942.53
2023-05-14T00:29:03.534Z,100948.88
2023-05-14T00:32:06.474Z,100951.53
2023-05-14T00:35:09.262Z,100942.94
2023-05-14T00:38:16.941Z,100925.22
2023-05-14T00:41:19.324Z,100921.88
2023-05-14T00:44:21.751Z,100917.88
2023-05-14T00:47:24.177Z,100942.47
2023-05-14T00:50:26.746Z,100902.72
2023-05-14T00:53:29.509Z,100948.31
2023-05-14T00:56:31.931Z,100947.75
2023-05-14T00:59:34.732Z,100916.47
2023-05-14T01:02:37.126Z,100934.03
2023-05-14T01:06:13.960Z,100935.97
2023-05-14T01:09:22.784Z,100902.16
2023-05-14T01:12:50.946Z,100950.91
2023-05-14T01:15:57.288Z,100939.09
2023-05-14T01:19:00.849Z,100900.13
2023-05-14T01:22:03.382Z,100910.31
2023-05-14T01:25:07.085Z,100909.41
2023-05-14T01:28:19.934Z,100931.53
2023-05-14T01:31:28.018Z,100924.13
2023-05-14T01:34:31.378Z,100931.84
2023-05-14T01:37:36.295Z,100931.81
2023-05-14T01:40:39.586Z,100878.16
2023-05-14T01:43:42.524Z,100892.41
2023-05-14T01:46:44.903Z,100922.66
2023-05-14T01:49:47.393Z,100922.97
2023-05-14T01:52:51.272Z,100923.78
2023-05-14T01:55:53.616Z,100923.22
2023-05-14T01:58:56.895Z,100926.91
2023-05-14T02:01:59.284Z,100895.50
2023-05-14T02:05:01.786Z,100869.59
2023-05-14T02:08:04.423Z,100926.94
2023-05-14T02:11:08.101Z,100908.63
2023-05-14T02:14:10.874Z,100903.53
2023-05-14T02:17:15.969Z,100916.22
2023-05-14T02:20:18.544Z,100887.38
2023-05-14T02:23:28.107Z,100897.78
2023-05-14T02:26:36.901Z,100898.13
2023-05-14T02:29:39.534Z,100899.00
2023-05-14T02:32:42.047Z,100876.97
2023-05-14T02:35:44.431Z,100898.31
2023-05-14T02:38:46.811Z,100887.28
2023-05-14T02:41:49.201Z,100902.53
2023-05-14T02:44:52.963Z,100899.84
2023-05-14T02:47:56.531Z,100887.25
2023-05-14T02:50:58.928Z,100855.59
2023-05-14T02:54:01.350Z,100853.00
2023-05-14T02:57:03.886Z,100844.63
2023-05-14T03:00:06.914Z,100869.28
2023-05-14T03:03:09.742Z,100867.75
2023-05-14T03:06:12.807Z,100869.41
2023-05-14T03:09:15.295Z,100866.88
2023-05-14T03:12:18.228Z,100854.88
2023-05-14T03:15:20.598Z,100870.19
2023-05-14T03:18:23.108Z,100869.91
2023-05-14T03:21:25.538Z,100870.09
2023-05-14T03:24:27.886Z,100844.47
2023-05-14T03:27:30.313Z,100874.22
2023-05-14T03:30:32.891Z,100843.56
2023-05-14T03:33:35.443Z,100872.38
2023-05-14T03:36:39.720Z,100843.13
2023-05-14T03:39:42.136Z,100860.22
2023-05-14T03:42:44.554Z,100872.63
2023-05-14T03:45:47.069Z,100871.63
2023-05-14T03:48:51.979Z,100880.75
2023-05-14T03:51:54.543Z,100883.81
2023-05-14T03:54:56.993Z,100877.59
2023-05-14T03:57:59.382Z,100858.00
2023-05-14T04:01:02.164Z,100844.97
2023-05-14T04:04:04.800Z,100873.38
2023-05-14T04:07:07.434Z,100870.50
2023-05-14T04:10:09.966Z,100847.41
2023-05-14T04:13:12.350Z,100878.66
2023-05-14T04:16:15.942Z,100864.88
2023-05-14T04:19:20.154Z,100889.13
2023-05-14T04:22:22.558Z,100886.31
2023-05-14T04:25:24.875Z,100868.69
2023-05-14T04:28:27.285Z,100892.28
2023-05-14T04:31:30.415Z,100877.00
2023-05-14T04:34:32.800Z,100886.88
2023-05-14T04:37:35.185Z,100865.25
2023-05-14T04:40:37.515Z,100811.19
2023-05-14T04:43:40.478Z,100875.75
2023-05-14T04:46:42.806Z,100873.72
2023-05-14T04:49:45.238Z,100820.81
2023-05-14T04:52:47.839Z,100842.56
2023-05-14T04:55:50.246Z,100821.84
2023-05-14T04:58:52.653Z,100861.16
2023-05-14T05:01:55.127Z,100811.97
2023-05-14T05:04:57.546Z,100834.16
2023-05-14T05:08:00.198Z,100834.94
2023-05-14T05:11:02.575Z,100867.34
2023-05-14T05:14:04.924Z,100843.06
2023-05-14T05:17:07.346Z,100851.09
2023-05-14T05:20:10.222Z,100841.28
2023-05-14T05:23:12.545Z,100850.69
2023-05-14T05:26:14.880Z,100851.47
2023-05-14T05:29:17.644Z,100843.75
2023-05-14T05:32:20.044Z,100822.75
2023-05-14T05:35:22.534Z,100820.50
2023-05-14T05:38:24.965Z,100802.50
2023-05-14T05:41:27.298Z,100803.47
2023-05-14T05:44:29.601Z,100795.13
2023-05-14T05:47:31.932Z,100835.22
2023-05-14T05:50:34.323Z,100800.94
2023-05-14T05:53:36.841Z,100797.31
2023-05-14T05:56:39.179Z,100811.59
2023-05-14T05:59:41.530Z,100815.00
2023-05-14T06:02:44.359Z,100817.34
2023-05-14T06:05:46.990Z,100809.56
2023-05-14T06:08:49.689Z,100831.09
2023-05-14T06:11:52.144Z,100822.94
2023-05-14T06:14:55.702Z,100824.66
2023-05-14T06:17:58.196Z,100813.69
2023-05-14T06:21:00.615Z,100805.47
2023-05-14T06:24:02.954Z,100815.41
2023-05-14T06:27:05.542Z,100813.53
2023-05-14T06:30:08.510Z,100792.13
2023-05-14T06:33:12.965Z,100789.41
2023-05-14T06:36:15.287Z,100795.19
2023-05-14T06:39:17.632Z,100786.25
2023-05-14T06:42:19.987Z,100782.84
2023-05-14T06:45:23.302Z,100801.03
2023-05-14T06:48:27.851Z,100789.97
2023-05-14T06:51:30.740Z,100803.25
2023-05-14T06:54:33.105Z,100761.25
2023-05-14T06:57:35.534Z,100788.25
2023-05-14T07:00:37.984Z,100786.44
2023-05-14T07:03:40.467Z,100796.78
2023-05-14T07:06:42.826Z,100794.31
2023-05-14T07:09:45.187Z,100765.56
2023-05-14T07:12:49.315Z,100787.56
2023-05-14T07:15:51.730Z,100765.59
2023-05-14T07:18:54.161Z,100763.56
2023-05-14T07:21:57.907Z,100783.56
2023-05-14T07:25:00.315Z,100778.84
2023-05-14T07:28:02.773Z,100757.59
2023-05-14T07:31:08.950Z,100784.41
2023-05-14T07:34:12.768Z,100772.03
2023-05-14T07:37:15.364Z,100782.78
2023-05-14T07:40:17.791Z,100784.34
2023-05-14T07:43:20.179Z,100760.59
2023-05-14T07:46:23.949Z,100767.72
2023-05-14T07:49:26.301Z,100782.06
2023-05-14T07:52:28.794Z,100780.91
2023-05-14T07:55:31.460Z,100782.56
2023-05-14T07:58:35.105Z,100755.69
2023-05-14T08:01:39.329Z,100753.56
2023-05-14T08:04:42.031Z,100771.00
2023-05-14T08:07:44.964Z,100751.19
2023-05-14T08:10:47.325Z,100764.38
2023-05-14T08:13:49.814Z,100761.03
2023-05-14T08:16:52.363Z,100740.03
2023-05-14T08:19:54.853Z,100748.88
2023-05-14T08:22:58.115Z,100727.91
2023-05-14T08:26:00.502Z,100734.28
2023-05-14T08:29:02.827Z,100728.88
2023-05-14T08:32:15.525Z,100728.31
2023-05-14T08:35:24.859Z,100741.97
2023-05-14T08:38:27.221Z,100728.88
2023-05-14T08:41:30.167Z,100704.72
2023-05-14T08:44:57.188Z,100721.22
2023-05-14T08:48:02.021Z,100687.72
2023-05-14T08:51:04.638Z,100701.63
2023-05-14T08:54:07.429Z,100715.97
2023-05-14T08:57:11.161Z,100717.09
2023-05-14T09:00:15.623Z,100714.25
2023-05-14T09:03:18.478Z,100708.50
2023-05-14T09:06:22.278Z,100709.81
2023-05-14T09:09:24.666Z,100704.41
2023-05-14T09:12:27.033Z,100703.56
2023-05-14T09:15:31.055Z,100697.34
2023-05-14T09:18:36.083Z,100698.91
2023-05-14T09:21:38.654Z,100695.19
2023-05-14T09:24:41.809Z,100699.97
2023-05-14T09:27:50.221Z,100671.28
2023-05-14T09:30:52.707Z,100667.19
2023-05-14T09:33:55.057Z,100672.66
2023-05-14T09:36:59.268Z,100655.50
2023-05-14T09:40:06.789Z,100646.78
2023-05-14T09:43:09.729Z,100669.00
2023-05-14T09:46:12.111Z,100641.94
2023-05-14T09:49:14.734Z,100628.69
2023-05-14T09:52:19.481Z,100635.50
2023-05-14T09:55:22.945Z,100622.56
2023-05-14T09:58:25.442Z,100631.75
2023-05-14T10:01:30.224Z,100626.03
2023-05-14T10:04:33.967Z,100609.84
2023-05-14T10:07:42.825Z,100626.50
2023-05-14T10:10:45.406Z,100621.72
2023-05-14T10:14:02.781Z,100594.88
2023-05-14T10:17:06.465Z,100587.25
2023-05-14T10:20:13.135Z,100584.44
2023-05-14T10:23:15.722Z,100601.38
2023-05-14T10:26:18.384Z,100595.81
2023-05-14T10:29:34.904Z,100576.41
2023-05-14T10:32:37.997Z,100579.09
2023-05-14T10:36:06.138Z,100588.63
2023-05-14T10:39:09.140Z,100552.28
2023-05-14T10:42:14.011Z,100575.03
2023-05-14T10:45:16.887Z,100545.66
2023-05-14T10:48:20.029Z,100535.81
2023-05-14T10:51:23.376Z,100527.19
2023-05-14T10:54:28.117Z,100537.47
2023-05-14T10:57:32.389Z,100552.56
2023-05-14T11:00:35.455Z,100539.69
2023-05-14T11:03:43.140Z,100525.97
2023-05-14T11:06:47.528Z,100526.47
2023-05-14T11:09:51.051Z,100509.78
2023-05-14T11:12:53.390Z,100482.69
2023-05-14T11:15:56.880Z,100475.47
2023-05-14T11:19:04.016Z,100494.50
2023-05-14T11:22:07.987Z,100480.13
2023-05-14T11:25:14.483Z,100488.19
2023-05-14T11:28:17.334Z,100478.81
2023-05-14T11:31:19.736Z,100466.16
2023-05-14T11:34:22.139Z,100441.16
2023-05-14T11:37:24.542Z,100468.28
2023-05-14T11:40:27.031Z,100443.44
2023-05-14T11:43:29.576Z,100439.00
2023-05-14T11:46:31.996Z,100466.47
2023-05-14T11:49:37.448Z,100450.06
2023-05-14T11:52:41.649Z,100452.00
2023-05-14T11:55:44.077Z,100478.16
2023-05-14T11:58:49.432Z,100473.53
2023-05-14T12:01:54.807Z,100450.13
2023-05-14T12:04:57.653Z,100428.00
2023-05-14T12:08:00.035Z,100439.44
2023-05-14T12:11:02.378Z,100453.19
2023-05-14T12:14:12.686Z,100425.22
2023-05-14T12:17:19.982Z,100457.78
2023-05-14T12:20:23.668Z,100437.22
2023-05-14T12:23:27.732Z,100456.53
2023-05-14T12:26:34.135Z,100439.06
2023-05-14T12:29:39.411Z,100424.25
2023-05-14T12:32:41.840Z,100432.66
2023-05-14T12:35:44.610Z,100429.91
2023-05-14T12:38:47.020Z,100426.44
2023-05-14T12:41:49.385Z,100421.34
2023-05-14T12:44:52.198Z,100411.69
2023-05-14T12:47:54.644Z,100420.19
2023-05-14T12:50:57.057Z,100417.06
2023-05-14T12:53:59.381Z,100416.22
2023-05-14T12:57:01.724Z,100413.38
2023-05-14T13:00:08.237Z,100416.94
2023-05-14T13:03:10.952Z,100409.88
2023-05-14T13:06:13.500Z,100389.81
2023-05-14T13:09:15.908Z,100408.69
2023-05-14T13:12:18.278Z,100402.03
2023-05-14T13:15:20.596Z,100379.19
2023-05-14T13:18:23.012Z,100382.69
2023-05-14T13:21:25.468Z,100369.53
2023-05-14T13:24:27.859Z,100394.41
2023-05-14T13:27:30.552Z,100367.72
2023-05-14T13:30:32.960Z,100388.66
2023-05-14T13:33:41.373Z,100374.41
2023-05-14T13:36:43.918Z,100369.88
2023-05-14T13:39:46.329Z,100361.00
2023-05-14T13:42:48.708Z,100382.03
2023-05-14T13:45:51.398Z,100337.44
2023-05-14T13:48:53.745Z,100364.78
2023-05-14T13:51:56.105Z,100366.53
2023-05-14T13:54:58.554Z,100347.09
2023-05-14T13:58:02.533Z,100373.16
2023-05-14T14:01:05.047Z,100350.41
2023-05-14T14:04:07.393Z,100345.25
2023-05-14T14:07:09.767Z,100329.84
2023-05-14T14:10:12.426Z,100346.91
2023-05-14T14:13:14.767Z,100344.75
2023-05-14T14:16:17.220Z,100335.47
2023-05-14T14:19:19.628Z,100340.88
2023-05-14T14:22:22.471Z,100348.06
2023-05-14T14:25:25.696Z,100330.03
2023-05-14T14:28:28.209Z,100338.28
2023-05-14T14:31:30.786Z,100334.13
2023-05-14T14:34:33.184Z,100333.63
2023-05-14T14:37:35.575Z,100330.75
2023-05-14T14:40:38.005Z,100331.13
2023-05-14T14:43:41.127Z,100329.78
2023-05-14T14:46:43.552Z,100325.47
2023-05-14T14:49:45.957Z,100325.66
2023-05-14T14:52:48.407Z,100313.91
2023-05-14T14:55:51.495Z,100333.97
2023-05-14T14:58:53.851Z,100340.81
2023-05-14T15:01:56.230Z,100325.19
2023-05-14T15:04:58.574Z,100333.19
2023-05-14T15:08:00.938Z,100334.09
2023-05-14T15:11:03.360Z,100364.75
2023-05-14T15:14:05.788Z,100363.19
2023-05-14T15:17:08.225Z,100369.66
2023-05-14T15:20:11.755Z,100365.91
2023-05-14T15:23:17.322Z,100345.09
2023-05-14T15:26:19.692Z,100359.38
2023-05-14T15:29:22.420Z,100348.88
2023-05-14T15:32:27.167Z,100360.22
2023-05-14T15:35:29.654Z,100338.69
2023-05-14T15:38:32.022Z,100343.63
2023-05-14T15:41:34.444Z,100337.25
2023-05-14T15:44:38.836Z,100342.59
2023-05-14T15:47:41.825Z,100355.59
2023-05-14T15:50:44.298Z,100331.91
2023-05-14T15:53:46.654Z,100333.63
2023-05-14T15:56:49.109Z,100326.84
2023-05-14T15:59:51.968Z,100334.91
2023-05-14T16:02:54.435Z,100325.88
2023-05-14T16:05:57.259Z,100306.78
2023-05-14T16:09:00.938Z,100318.97
2023-05-14T16:12:04.566Z,100320.22
2023-05-14T16:15:08.031Z,100317.91
2023-05-14T16:18:10.706Z,100318.56
2023-05-14T16:21:13.277Z,100303.66
2023-05-14T16:24:18.163Z,100294.88
2023-05-14T16:27:20.539Z,100305.34
2023-05-14T16:30:23.073Z,100313.41
2023-05-14T16:33:25.526Z,100318.09
2023-05-14T16:36:28.038Z,100302.84
2023-05-14T16:39:30.360Z,100320.22
2023-05-14T16:42:32.699Z,100291.78
2023-05-14T16:45:37.270Z,100296.50
2023-05-14T16:48:39.842Z,100312.84
2023-05-14T16:51:43.908Z,100306.69
2023-05-14T16:54:46.263Z,100299.28
2023-05-14T16:57:48.698Z,100277.38
2023-05-14T17:00:51.058Z,100297.50
2023-05-14T17:03:53.898Z,100306.41
2023-05-14T17:06:57.349Z,100276.53
2023-05-14T17:10:00.751Z,100262.91
2023-05-14T17:13:03.379Z,100258.66
2023-05-14T17:16:05.971Z,100230.59
2023-05-14T17:19:08.780Z,100240.78
2023-05-14T17:22:11.425Z,100225.84
2023-05-14T17:25:13.798Z,100245.91
2023-05-14T17:28:16.226Z,100244.88
2023-05-14T17:31:18.765Z,100247.66
2023-05-14T17:34:21.175Z,100227.34
2023-05-14T17:37:24.396Z,100226.97
2023-05-14T17:40:26.815Z,100238.53
2023-05-14T17:43:29.197Z,100233.22
2023-05-14T17:46:33.744Z,100247.41
2023-05-14T17:49:36.345Z,100223.41
2023-05-14T17:52:38.824Z,100244.41
2023-05-14T17:55:43.641Z,100220.69
2023-05-14T17:58:46.802Z,100219.03
2023-05-14T18:01:49.130Z,100245.72
2023-05-14T18:04:51.551Z,100242.00
2023-05-14T18:07:55.165Z,100246.09
2023-05-14T18:10:58.558Z,100225.84
2023-05-14T18:14:01.265Z,100241.34
2023-05-14T18:17:04.024Z,100257.19
2023-05-14T18:20:07.592Z,100221.16
2023-05-14T18:23:10.201Z,100215.47
2023-05-14T18:26:12.888Z,100243.63
2023-05-14T18:29:15.342Z,100244.13
2023-05-14T18:32:17.981Z,100222.25
2023-05-14T18:35:20.320Z,100229.19
2023-05-14T18:38:22.638Z,100223.69
2023-05-14T18:41:25.124Z,100227.03
2023-05-14T18:44:27.600Z,100236.44
2023-05-14T18:47:30.434Z,100253.88
2023-05-14T18:50:32.988Z,100251.28
2023-05-14T18:53:35.479Z,100221.88
2023-05-14T18:56:40.065Z,100225.06
2023-05-14T18:59:42.469Z,100244.75
2023-05-14T19:02:44.890Z,100221.13
2023-05-14T19:05:47.617Z,100211.72
2023-05-14T19:08:50.307Z,100221.59
2023-05-14T19:11:52.705Z,100239.78
2023-05-14T19:14:55.254Z,100233.00
2023-05-14T19:17:57.946Z,100210.09
2023-05-14T19:21:00.561Z,100186.13
2023-05-14T19:24:03.035Z,100198.09
2023-05-14T19:27:05.739Z,100220.03
2023-05-14T19:30:08.658Z,100218.63
2023-05-14T19:33:11.151Z,100201.88
2023-05-14T19:36:13.568Z,100210.97
2023-05-14T19:39:16.005Z,100171.25
2023-05-14T19:42:18.696Z,100172.09
2023-05-14T19:45:21.037Z,100185.72
2023-05-14T19:48:23.383Z,100155.00
2023-05-14T19:51:25.739Z,100182.06
2023-05-14T19:54:28.121Z,100189.81
2023-05-14T19:57:31.091Z,100178.19
2023-05-14T20:00:33.498Z,100181.66
2023-05-14T20:03:35.934Z,100174.66
2023-05-14T20:06:40.307Z,100165.72
2023-05-14T20:09:42.725Z,100170.19
2023-05-14T20:12:45.064Z,100146.72
2023-05-14T20:15:47.516Z,100137.22
2023-05-14T20:18:49.996Z,100135.03
2023-05-14T20:21:52.395Z,100122.19
2023-05-14T20:24:54.773Z,100132.19
2023-05-14T20:27:57.142Z,100125.25
2023-05-14T20:31:00.211Z,100100.56
2023-05-14T20:34:03.494Z,100065.97
2023-05-14T20:37:06.762Z,100105.19
2023-05-14T20:40:12.779Z,100101.34
2023-05-14T20:43:15.412Z,100099.78
2023-05-14T20:46:17.783Z,100069.75
2023-05-14T20:49:20.127Z,100088.16
2023-05-14T20:52:22.474Z,100099.44
2023-05-14T20:55:25.041Z,100104.75
2023-05-14T20:58:27.579Z,100077.09
2023-05-14T21:01:29.986Z,100071.88
2023-05-14T21:04:33.535Z,100056.41
2023-05-14T21:07:36.557Z,100071.44
2023-05-14T21:10:38.943Z,100063.84
2023-05-14T21:13:43.964Z,100057.91
2023-05-14T21:16:46.652Z,100065.72
2023-05-14T21:19:49.048Z,100052.31
2023-05-14T21:22:51.432Z,100054.25
2023-05-14T21:25:54.962Z,100029.47
2023-05-14T21:28:57.860Z,100030.94
2023-05-14T21:32:00.341Z,100021.44
2023-05-14T21:35:03.406Z,100008.69
2023-05-14T21:38:05.994Z,100032.97
2023-05-14T21:41:08.407Z,100022.09
2023-05-14T21:44:10.765Z,100005.31
2023-05-14T21:47:13.258Z,100019.41
2023-05-14T21:50:15.704Z,99996.84
2023-05-14T21:53:18.145Z,99994.22
2023-05-14T21:56:21.126Z,99988.75
2023-05-14T21:59:23.498Z,100011.28
2023-05-14T22:02:26.520Z,100006.25
2023-05-14T22:05:29.261Z,100015.50
2023-05-14T22:08:32.244Z,100008.97
2023-05-14T22:11:34.565Z,100000.31
2023-05-14T22:14:36.937Z,99980.00
2023-05-14T22:17:39.480Z,100008.78
2023-05-14T22:20:42.827Z,99998.84
2023-05-14T22:23:45.390Z,99992.56
2023-05-14T22:26:47.738Z,99987.16
2023-05-14T22:29:50.158Z,99973.66
2023-05-14T22:32:52.582Z,99967.88
2023-05-14T22:35:54.995Z,99983.63
2023-05-14T22:38:57.382Z,99958.28
2023-05-14T22:41:59.844Z,99952.81
2023-05-14T22:45:02.295Z,99918.81
2023-05-14T22:48:04.839Z,99946.84
2023-05-14T22:51:07.396Z,99926.91
2023-05-14T22:54:10.531Z,99951.22
2023-05-14T22:57:12.913Z,99926.25
2023-05-14T23:00:15.899Z,99937.50
2023-05-14T23:03:18.232Z,99955.31
2023-05-14T23:06:20.913Z,99936.09
2023-05-14T23:09:23.492Z,99930.88
2023-05-14T23:12:26.079Z,99950.09
2023-05-14T23:15:28.498Z,99939.38
2023-05-14T23:18:31.009Z,99889.19
2023-05-14T23:21:33.511Z,99929.41
2023-05-14T23:24:35.846Z,99931.81
2023-05-14T23:27:38.319Z,99936.41
2023-05-14T23:30:40.647Z,99932.19
2023-05-14T23:33:44.672Z,99924.19
2023-05-14T23:36:47.012Z,99923.81
2023-05-14T23:39:49.469Z,99925.41
2023-05-14T23:42:51.858Z,99928.63
2023-05-14T23:45:54.381Z,99900.09
2023-05-14T23:48:57.152Z,99890.75
2023-05-14T23:51:59.478Z,99887.63
2023-05-14T23:55:01.973Z,99920.44
2023-05-14T23:58:04.937Z,99926.59
